Time;durP1;ratioP1;P1;durP2;ratioP2;P2;SDS_P1;SDS_P2;PMS_P1;PMS_P2;Temp;Humidity;BMP_temperature;BMP_pressure;BME280_temperature;BME280_humidity;BME280_pressure;Samples;Min_cycle;Max_cycle;Signal;HPM_P1;HPM_P2
2023/04/27 00:00:55;;;;;;;;;21.00;16.50;;;;;-145.45;100.00;57426.63;6213156;22;45183;-73
2023/04/27 00:03:20;;;;;;;;;16.00;12.75;;;;;-145.45;100.00;57426.63;6216122;22;45269;-73
2023/04/27 00:05:46;;;;;;;;;17.00;15.25;;;;;-145.45;100.00;57426.63;6215679;22;45449;-73
2023/04/27 00:08:11;;;;;;;;;18.25;14.50;;;;;-145.45;100.00;57426.63;6215659;22;45578;-73
2023/04/27 00:10:36;;;;;;;;;15.25;13.25;;;;;-145.45;100.00;57426.63;6215603;22;45237;-73
2023/04/27 00:13:02;;;;;;;;;17.50;16.25;;;;;-145.45;100.00;57426.63;6213178;22;45331;-73
2023/04/27 00:15:28;;;;;;;;;11.75;10.25;;;;;-145.45;100.00;57426.63;6216096;22;45220;-73
2023/04/27 00:17:53;;;;;;;;;15.25;12.25;;;;;-145.45;100.00;57426.63;6215333;22;45350;-73
2023/04/27 00:20:19;;;;;;;;;21.25;17.00;;;;;-145.45;100.00;57426.63;6215884;22;45331;-73
2023/04/27 00:22:45;;;;;;;;;19.00;17.50;;;;;-145.45;100.00;57426.63;6215552;22;45256;-73
2023/04/27 00:25:11;;;;;;;;;25.00;18.25;;;;;-145.45;100.00;57426.63;6216203;22;45141;-73
2023/04/27 00:27:36;;;;;;;;;20.00;16.50;;;;;-145.45;100.00;57426.63;6215003;22;45419;-73
2023/04/27 00:30:01;;;;;;;;;22.00;18.00;;;;;-145.45;100.00;57426.63;6216076;22;45126;-73
2023/04/27 00:32:27;;;;;;;;;21.00;17.75;;;;;-145.45;100.00;57426.63;6213103;22;45219;-73
2023/04/27 00:34:52;;;;;;;;;23.00;20.00;;;;;-145.45;100.00;57426.63;6215985;22;45129;-73
2023/04/27 00:37:18;;;;;;;;;23.00;18.00;;;;;-145.45;100.00;57426.63;6214594;22;45296;-73
2023/04/27 00:39:43;;;;;;;;;18.75;15.25;;;;;-145.45;100.00;57426.63;6215984;22;44638;-73
2023/04/27 00:42:12;;;;;;;;;20.50;18.50;;;;;-145.45;100.00;57426.63;6215089;22;44658;-73
2023/04/27 00:44:38;;;;;;;;;16.50;14.75;;;;;-145.45;100.00;57426.63;6213767;22;46644;-73
2023/04/27 00:47:04;;;;;;;;;14.00;13.50;;;;;-145.45;100.00;57426.63;6238318;22;47334;-73
2023/04/27 00:49:31;;;;;;;;;16.25;13.75;;;;;-145.45;100.00;57426.63;6239379;22;45235;-73
2023/04/27 00:51:56;;;;;;;;;15.50;15.50;;;;;-145.45;100.00;57426.63;6215487;22;45213;-73
2023/04/27 00:54:22;;;;;;;;;18.25;15.25;;;;;-145.45;100.00;57426.63;6239330;22;45732;-73
2023/04/27 00:56:49;;;;;;;;;15.25;14.25;;;;;-145.45;100.00;57426.63;6215277;22;45352;-73
2023/04/27 00:59:16;;;;;;;;;11.00;11.00;;;;;-145.45;100.00;57426.63;6215834;22;45221;-73
2023/04/27 01:01:41;;;;;;;;;17.25;17.00;;;;;-145.45;100.00;57426.63;6213153;22;45215;-73
2023/04/27 01:04:06;;;;;;;;;19.25;15.75;;;;;-145.45;100.00;57426.63;6213272;22;46948;-73
2023/04/27 01:06:32;;;;;;;;;14.00;12.00;;;;;-145.45;100.00;57426.63;6212712;22;50629;-73
2023/04/27 01:08:57;;;;;;;;;12.25;11.75;;;;;-145.45;100.00;57426.63;6215942;22;45266;-73
2023/04/27 01:11:23;;;;;;;;;17.00;16.00;;;;;-145.45;100.00;57426.63;6215348;22;45269;-73
2023/04/27 01:13:48;;;;;;;;;14.75;12.00;;;;;-145.45;100.00;57426.63;6214895;22;45566;-73
2023/04/27 01:16:15;;;;;;;;;13.00;10.50;;;;;-145.45;100.00;57426.63;6215260;22;45519;-73
2023/04/27 01:18:41;;;;;;;;;16.50;12.00;;;;;-145.45;100.00;57426.63;6239373;22;45237;-73
2023/04/27 01:21:06;;;;;;;;;14.75;13.25;;;;;-145.45;100.00;57426.63;6215143;22;45169;-73
2023/04/27 01:23:32;;;;;;;;;16.50;12.00;;;;;-145.45;100.00;57426.63;6215572;22;45240;-73
2023/04/27 01:25:57;;;;;;;;;14.75;12.00;;;;;-145.45;100.00;57426.63;6215055;22;48466;-73
2023/04/27 01:28:22;;;;;;;;;16.00;10.50;;;;;-145.45;100.00;57426.63;6215379;22;45094;-73
2023/04/27 01:30:48;;;;;;;;;12.75;12.25;;;;;-145.45;100.00;57426.63;6213375;22;45177;-73
2023/04/27 01:33:13;;;;;;;;;16.00;12.00;;;;;-145.45;100.00;57426.63;6238911;22;46738;-73
2023/04/27 01:35:39;;;;;;;;;12.00;11.25;;;;;-145.45;100.00;57426.63;6216645;22;45311;-73
2023/04/27 01:38:04;;;;;;;;;18.00;13.50;;;;;-145.45;100.00;57426.63;6215055;22;45361;-73
2023/04/27 01:40:29;;;;;;;;;14.50;13.00;;;;;-145.45;100.00;57426.63;6216638;22;45216;-73
2023/04/27 01:42:55;;;;;;;;;11.00;11.00;;;;;-145.45;100.00;57426.63;6216186;22;45218;-73
2023/04/27 01:45:20;;;;;;;;;15.25;13.50;;;;;-145.45;100.00;57426.63;6216719;22;45890;-73
2023/04/27 01:47:45;;;;;;;;;15.50;13.25;;;;;-145.45;100.00;57426.63;6216149;22;45241;-73
2023/04/27 01:50:11;;;;;;;;;20.00;13.75;;;;;-145.45;100.00;57426.63;6214652;22;45265;-73
2023/04/27 01:52:36;;;;;;;;;11.00;11.00;;;;;-145.45;100.00;57426.63;6216300;22;45591;-73
2023/04/27 01:55:02;;;;;;;;;17.25;13.25;;;;;-145.45;100.00;57426.63;6214642;22;48062;-73
2023/04/27 01:57:27;;;;;;;;;9.50;9.25;;;;;-145.45;100.00;57426.63;6213123;22;45285;-73
2023/04/27 01:59:52;;;;;;;;;11.75;10.75;;;;;-145.45;100.00;57426.63;6216980;22;45304;-73
2023/04/27 02:02:18;;;;;;;;;11.25;11.25;;;;;-145.45;100.00;57426.63;6216262;22;45638;-73
2023/04/27 02:04:43;;;;;;;;;9.50;9.00;;;;;-145.45;100.00;57426.63;6214400;22;46413;-73
2023/04/27 02:07:09;;;;;;;;;15.25;10.50;;;;;-145.45;100.00;57426.63;6216069;22;45268;-73
2023/04/27 02:09:35;;;;;;;;;15.50;10.00;;;;;-145.45;100.00;57426.63;6216891;22;45290;-73
2023/04/27 02:12:01;;;;;;;;;16.00;12.25;;;;;-145.45;100.00;57426.63;6215922;22;45521;-73
2023/04/27 02:14:26;;;;;;;;;11.50;11.50;;;;;-145.45;100.00;57426.63;6216553;22;45237;-72
2023/04/27 02:16:52;;;;;;;;;14.00;11.75;;;;;-145.45;100.00;57426.63;6214001;22;45252;-72
2023/04/27 02:19:17;;;;;;;;;12.00;11.75;;;;;-145.45;100.00;57426.63;6216888;22;45088;-73
2023/04/27 02:21:42;;;;;;;;;16.00;14.00;;;;;-145.45;100.00;57426.63;6216068;22;46568;-73
2023/04/27 02:24:08;;;;;;;;;13.25;10.00;;;;;-145.45;100.00;57426.63;6216765;22;45360;-73
2023/04/27 02:26:34;;;;;;;;;14.00;11.75;;;;;-145.45;100.00;57426.63;6216025;22;44571;-73
2023/04/27 02:28:59;;;;;;;;;16.25;15.00;;;;;-145.45;100.00;57426.63;6216762;22;45200;-73
2023/04/27 02:31:25;;;;;;;;;19.00;14.00;;;;;-145.45;100.00;57426.63;6216022;22;45164;-73
2023/04/27 02:33:50;;;;;;;;;13.50;11.50;;;;;-145.45;100.00;57426.63;6216130;22;45583;-73
2023/04/27 02:36:15;;;;;;;;;18.00;11.25;;;;;-145.45;100.00;57426.63;6216101;22;45283;-73
2023/04/27 02:38:41;;;;;;;;;11.75;10.50;;;;;-145.45;100.00;57426.63;6216503;22;44708;-73
2023/04/27 02:41:06;;;;;;;;;14.75;12.50;;;;;-145.45;100.00;57426.63;6188346;22;45723;-73
2023/04/27 02:43:31;;;;;;;;;14.25;13.50;;;;;-145.45;100.00;57426.63;6239395;22;46523;-73
2023/04/27 02:46:02;;;;;;;;;13.50;13.50;;;;;-145.45;100.00;57426.63;6216018;22;45234;-73
2023/04/27 02:48:27;;;;;;;;;14.50;13.25;;;;;-145.45;100.00;57426.63;6216379;22;45173;-73
2023/04/27 02:50:52;;;;;;;;;16.25;15.25;;;;;-145.45;100.00;57426.63;6215741;22;45454;-73
2023/04/27 02:53:17;;;;;;;;;15.75;14.50;;;;;-145.45;100.00;57426.63;6216357;22;45323;-73
2023/04/27 02:55:47;;;;;;;;;14.00;12.75;;;;;-145.45;100.00;57426.63;6216168;22;45380;-73
2023/04/27 02:58:12;;;;;;;;;14.00;13.50;;;;;-145.45;100.00;57426.63;6216317;22;45248;-73
2023/04/27 03:00:39;;;;;;;;;14.50;14.50;;;;;-145.45;100.00;57426.63;6215988;22;45165;-73
2023/04/27 03:03:05;;;;;;;;;12.25;12.25;;;;;-145.45;100.00;57426.63;6239326;22;48103;-73
2023/04/27 03:05:31;;;;;;;;;17.75;14.75;;;;;-145.45;100.00;57426.63;6216072;22;45212;-73
2023/04/27 03:07:56;;;;;;;;;16.50;15.75;;;;;-145.45;100.00;57426.63;6215912;22;45269;-73
2023/04/27 03:10:21;;;;;;;;;15.25;13.75;;;;;-145.45;100.00;57426.63;6216565;22;45291;-73
2023/04/27 03:12:47;;;;;;;;;16.00;14.50;;;;;-145.45;100.00;57426.63;6215320;22;46354;-73
2023/04/27 03:15:12;;;;;;;;;18.75;16.50;;;;;-145.45;100.00;57426.63;6216405;22;45157;-73
2023/04/27 03:17:37;;;;;;;;;15.25;14.50;;;;;-145.45;100.00;57426.63;6215936;22;45173;-73
2023/04/27 03:20:05;;;;;;;;;17.50;16.75;;;;;-145.45;100.00;57426.63;6216390;22;45399;-73
2023/04/27 03:22:31;;;;;;;;;16.75;14.00;;;;;-145.45;100.00;57426.63;6215486;22;45327;-73
2023/04/27 03:24:56;;;;;;;;;26.75;22.50;;;;;-145.45;100.00;57426.63;6216265;22;45224;-73
2023/04/27 03:27:22;;;;;;;;;25.50;24.00;;;;;-145.45;100.00;57426.63;6215832;22;44738;-73
2023/04/27 03:29:51;;;;;;;;;25.25;21.00;;;;;-145.45;100.00;57426.63;6216338;22;45258;-73
2023/04/27 03:32:17;;;;;;;;;24.50;24.00;;;;;-145.45;100.00;57426.63;6215938;22;45240;-73
2023/04/27 03:34:42;;;;;;;;;22.25;17.75;;;;;-145.45;100.00;57426.63;6215940;22;45184;-73
2023/04/27 03:37:08;;;;;;;;;29.25;25.75;;;;;-145.45;100.00;57426.63;6215818;22;45237;-73
2023/04/27 03:39:33;;;;;;;;;25.50;21.50;;;;;-145.45;100.00;57426.63;6214185;22;46300;-73
2023/04/27 03:41:58;;;;;;;;;26.25;22.75;;;;;-145.45;100.00;57426.63;6215241;22;45187;-73
2023/04/27 03:44:23;;;;;;;;;30.25;24.25;;;;;-145.45;100.00;57426.63;6214226;22;45223;-73
2023/04/27 03:46:49;;;;;;;;;32.00;26.00;;;;;-145.45;100.00;57426.63;6215625;22;45248;-73
2023/04/27 03:49:14;;;;;;;;;21.50;18.75;;;;;-145.45;100.00;57426.63;6216538;22;45225;-73
2023/04/27 03:51:41;;;;;;;;;33.25;29.25;;;;;-145.45;100.00;57426.63;6215279;22;56618;-73
2023/04/27 03:54:06;;;;;;;;;25.25;22.50;;;;;-145.45;100.00;57426.63;6214213;22;45327;-73
2023/04/27 03:56:31;;;;;;;;;26.25;22.50;;;;;-145.45;100.00;57426.63;6212898;22;45277;-73
2023/04/27 03:58:57;;;;;;;;;20.75;19.75;;;;;-145.45;100.00;57426.63;6213503;22;45294;-73
2023/04/27 04:01:23;;;;;;;;;27.75;24.50;;;;;-145.45;100.00;57426.63;6215636;22;46336;-73
2023/04/27 04:03:50;;;;;;;;;26.00;23.75;;;;;-145.45;100.00;57426.63;6216215;22;45356;-73
2023/04/27 04:06:15;;;;;;;;;25.25;22.25;;;;;-145.45;100.00;57426.63;6213149;22;45179;-73
2023/04/27 04:08:41;;;;;;;;;23.00;20.50;;;;;-145.45;100.00;57426.63;6215285;22;45804;-73
2023/04/27 04:11:06;;;;;;;;;22.25;21.75;;;;;-145.45;100.00;57426.63;6213439;22;47660;-73
2023/04/27 04:13:31;;;;;;;;;23.50;21.75;;;;;-145.45;100.00;57426.63;6215152;22;45169;-73
2023/04/27 04:16:01;;;;;;;;;20.25;19.00;;;;;-145.45;100.00;57426.63;6215659;22;45209;-73
2023/04/27 04:18:26;;;;;;;;;22.00;20.00;;;;;-145.45;100.00;57426.63;6215853;22;44674;-73
2023/04/27 04:20:52;;;;;;;;;19.25;18.50;;;;;-145.45;100.00;57426.63;6215527;22;45209;-73
2023/04/27 04:23:17;;;;;;;;;19.50;18.25;;;;;-145.45;100.00;57426.63;6213263;22;50983;-73
2023/04/27 04:25:44;;;;;;;;;20.00;18.50;;;;;-145.45;100.00;57426.63;6215135;22;46855;-72
2023/04/27 04:28:10;;;;;;;;;17.75;17.25;;;;;-145.45;100.00;57426.63;6215346;22;45486;-73
2023/04/27 04:30:35;;;;;;;;;21.50;18.75;;;;;-145.45;100.00;57426.63;6213652;22;46471;-72
2023/04/27 04:33:00;;;;;;;;;19.00;18.50;;;;;-145.45;100.00;57426.63;6215062;22;51759;-72
2023/04/27 04:35:26;;;;;;;;;18.25;18.00;;;;;-145.45;100.00;57426.63;6213966;22;45207;-72
2023/04/27 04:37:51;;;;;;;;;18.00;18.00;;;;;-145.45;100.00;57426.63;6215179;22;46285;-72
2023/04/27 04:40:16;;;;;;;;;21.50;16.75;;;;;-145.45;100.00;57426.63;6213148;22;52753;-72
2023/04/27 04:42:41;;;;;;;;;20.25;20.25;;;;;-145.45;100.00;57426.63;6214849;22;49232;-72
2023/04/27 04:45:07;;;;;;;;;19.25;17.75;;;;;-145.45;100.00;57426.63;6216172;22;45237;-72
2023/04/27 04:47:33;;;;;;;;;20.50;18.00;;;;;-145.45;100.00;57426.63;6213366;22;46941;-72
2023/04/27 04:49:58;;;;;;;;;20.00;17.00;;;;;-145.45;100.00;57426.63;6215706;22;46183;-72
2023/04/27 04:52:24;;;;;;;;;21.00;19.00;;;;;-145.45;100.00;57426.63;6215412;22;45158;-72
2023/04/27 04:54:52;;;;;;;;;21.50;19.25;;;;;-145.45;100.00;57426.63;6216065;22;45266;-73
2023/04/27 04:57:18;;;;;;;;;26.50;23.00;;;;;-145.45;100.00;57426.63;6215043;22;45288;-72
2023/04/27 04:59:43;;;;;;;;;26.50;26.50;;;;;-145.45;100.00;57426.63;6215350;22;45181;-73
2023/04/27 05:02:09;;;;;;;;;24.50;24.25;;;;;-145.45;100.00;57426.63;6215058;22;45259;-72
2023/04/27 05:04:34;;;;;;;;;26.50;25.75;;;;;-145.45;100.00;57426.63;6215220;22;45986;-74
2023/04/27 05:07:00;;;;;;;;;24.50;21.50;;;;;-145.45;100.00;57426.63;6215329;22;45327;-73
2023/04/27 05:09:25;;;;;;;;;23.50;23.00;;;;;-145.45;100.00;57426.63;6214118;22;46730;-74
2023/04/27 05:11:50;;;;;;;;;25.75;23.75;;;;;-145.45;100.00;57426.63;6215949;22;45272;-73
2023/04/27 05:14:16;;;;;;;;;24.25;23.50;;;;;-145.45;100.00;57426.63;6216493;22;45205;-72
2023/04/27 05:16:41;;;;;;;;;30.50;25.00;;;;;-145.45;100.00;57426.63;6213699;22;45558;-73
2023/04/27 05:19:07;;;;;;;;;23.00;20.25;;;;;-145.45;100.00;57426.63;6216391;22;46128;-73
2023/04/27 05:21:33;;;;;;;;;27.75;24.50;;;;;-145.45;100.00;57426.63;6217522;22;45373;-73
2023/04/27 05:23:58;;;;;;;;;28.50;25.00;;;;;-145.45;100.00;57426.63;6214688;22;45211;-73
2023/04/27 05:26:24;;;;;;;;;34.50;26.75;;;;;-145.45;100.00;57426.63;6216221;22;45209;-73
2023/04/27 05:28:50;;;;;;;;;30.00;25.25;;;;;-145.45;100.00;57426.63;6216259;22;46332;-72
2023/04/27 05:31:15;;;;;;;;;28.75;24.25;;;;;-145.45;100.00;57426.63;6214115;22;45407;-72
2023/04/27 05:33:40;;;;;;;;;24.50;23.00;;;;;-145.45;100.00;57426.63;6240076;22;45272;-72
2023/04/27 05:36:06;;;;;;;;;25.25;22.50;;;;;-145.45;100.00;57426.63;6215895;22;45291;-74
2023/04/27 05:38:33;;;;;;;;;31.25;26.00;;;;;-145.45;100.00;57426.63;6215564;22;46254;-74
2023/04/27 05:40:59;;;;;;;;;25.50;20.75;;;;;-145.45;100.00;57426.63;6213788;22;45325;-75
2023/04/27 05:43:25;;;;;;;;;22.50;21.75;;;;;-145.45;100.00;57426.63;6239773;22;45288;-75
2023/04/27 05:45:50;;;;;;;;;24.25;23.25;;;;;-145.45;100.00;57426.63;6216392;22;45226;-75
2023/04/27 05:48:16;;;;;;;;;26.25;23.00;;;;;-145.45;100.00;57426.63;6216027;22;45234;-74
2023/04/27 05:50:41;;;;;;;;;21.25;19.75;;;;;-145.45;100.00;57426.63;6216199;22;45152;-74
2023/04/27 05:53:06;;;;;;;;;22.50;19.75;;;;;-145.45;100.00;57426.63;6216518;22;45182;-75
2023/04/27 05:55:32;;;;;;;;;25.50;18.00;;;;;-145.45;100.00;57426.63;6216185;22;45122;-75
2023/04/27 05:57:57;;;;;;;;;28.00;24.00;;;;;-145.45;100.00;57426.63;6213926;22;47170;-74
2023/04/27 06:00:23;;;;;;;;;27.50;22.00;;;;;-145.45;100.00;57426.63;6216562;22;45183;-74
2023/04/27 06:02:49;;;;;;;;;23.25;21.75;;;;;-145.45;100.00;57426.63;6216275;22;45150;-74
2023/04/27 06:05:14;;;;;;;;;26.00;22.75;;;;;-145.45;100.00;57426.63;6216337;22;45155;-75
2023/04/27 06:07:42;;;;;;;;;31.00;25.25;;;;;-145.45;100.00;57426.63;6215961;22;45174;-75
2023/04/27 06:10:10;;;;;;;;;26.25;24.00;;;;;-145.45;100.00;57426.63;6216655;22;45311;-74
2023/04/27 06:12:37;;;;;;;;;25.00;19.00;;;;;-145.45;100.00;57426.63;6214335;22;45294;-74
2023/04/27 06:15:07;;;;;;;;;29.50;24.00;;;;;-145.45;100.00;57426.63;6213579;22;45592;-74
2023/04/27 06:17:36;;;;;;;;;23.25;21.75;;;;;-145.45;100.00;57426.63;6214026;22;46265;-74
2023/04/27 06:20:05;;;;;;;;;25.00;24.00;;;;;-145.45;100.00;57426.63;6215590;22;45145;-74
2023/04/27 06:22:31;;;;;;;;;21.25;18.75;;;;;-145.45;100.00;57426.63;6216339;22;45155;-74
2023/04/27 06:24:56;;;;;;;;;23.75;21.25;;;;;-145.45;100.00;57426.63;6216490;22;45414;-74
2023/04/27 06:27:21;;;;;;;;;26.75;24.25;;;;;-145.45;100.00;57426.63;6213329;22;46674;-74
2023/04/27 06:29:47;;;;;;;;;25.00;22.75;;;;;-145.45;100.00;57426.63;6216290;22;45253;-75
2023/04/27 06:32:12;;;;;;;;;26.75;21.75;;;;;-145.45;100.00;57426.63;6216282;22;45218;-75
2023/04/27 06:34:37;;;;;;;;;28.50;22.75;;;;;-145.45;100.00;57426.63;6216450;22;45271;-75
2023/04/27 06:37:03;;;;;;;;;23.75;22.50;;;;;-145.45;100.00;57426.63;6213873;22;46805;-75
2023/04/27 06:39:28;;;;;;;;;23.00;22.00;;;;;-145.45;100.00;57426.63;6216408;22;45205;-75
2023/04/27 06:41:53;;;;;;;;;22.50;20.00;;;;;-145.45;100.00;57426.63;6215158;22;44710;-75
2023/04/27 06:44:19;;;;;;;;;23.25;19.75;;;;;-145.45;100.00;57426.63;6216439;22;45403;-75
2023/04/27 06:46:44;;;;;;;;;20.25;17.50;;;;;-145.45;100.00;57426.63;6215233;22;46003;-75
2023/04/27 06:49:10;;;;;;;;;25.00;22.00;;;;;-145.45;100.00;57426.63;6216201;22;45272;-74
2023/04/27 06:51:35;;;;;;;;;19.25;18.00;;;;;-145.45;100.00;57426.63;6216021;22;45280;-75
2023/04/27 06:54:01;;;;;;;;;16.75;14.25;;;;;-145.45;100.00;57426.63;6265184;22;46047;-75
2023/04/27 06:56:26;;;;;;;;;16.50;14.50;;;;;-145.45;100.00;57426.63;6215788;22;46278;-75
2023/04/27 06:58:51;;;;;;;;;19.00;16.75;;;;;-145.45;100.00;57426.63;6214043;22;45205;-75
2023/04/27 07:01:17;;;;;;;;;22.50;19.75;;;;;-145.45;100.00;57426.63;6264793;22;46433;-75
2023/04/27 07:03:42;;;;;;;;;21.75;16.50;;;;;-145.45;100.00;57426.63;6216398;22;45250;-75
2023/04/27 07:06:07;;;;;;;;;20.00;18.75;;;;;-145.45;100.00;57426.63;6216035;22;45234;-75
2023/04/27 07:08:33;;;;;;;;;24.50;17.25;;;;;-145.45;100.00;57426.63;6265325;22;45224;-75
2023/04/27 07:10:58;;;;;;;;;16.50;15.00;;;;;-145.45;100.00;57426.63;6216243;22;45069;-76
2023/04/27 07:13:23;;;;;;;;;19.75;19.75;;;;;-145.45;100.00;57426.63;6215853;22;45254;-76
2023/04/27 07:16:00;;;;;;;;;15.25;15.25;;;;;-145.45;100.00;57426.63;6264855;22;46893;-75
2023/04/27 07:18:27;;;;;;;;;19.75;16.25;;;;;-145.45;100.00;57426.63;6216172;22;45173;-73
2023/04/27 07:20:52;;;;;;;;;18.75;18.00;;;;;-145.45;100.00;57426.63;6216116;22;45230;-75
2023/04/27 07:23:18;;;;;;;;;22.00;17.25;;;;;-145.45;100.00;57426.63;6216219;22;45397;-74
2023/04/27 11:02:10;;;;;;;;;6.00;4.00;;;;;-145.45;100.00;57426.63;6187381;22;47138;-69
2023/04/27 11:04:40;;;;;;;;;5.75;5.50;;;;;-145.45;100.00;57426.63;6236789;22;45355;-69
2023/04/27 11:07:09;;;;;;;;;6.00;4.75;;;;;-145.45;100.00;57426.63;6212266;22;45288;-68
2023/04/27 11:09:36;;;;;;;;;5.50;5.00;;;;;-145.45;100.00;57426.63;6215456;22;45279;-70
2023/04/27 11:12:06;;;;;;;;;8.00;5.00;;;;;-145.45;100.00;57426.63;6214566;22;45968;-69
2023/04/27 11:14:34;;;;;;;;;7.75;7.00;;;;;-145.45;100.00;57426.63;6212598;22;45607;-68
2023/04/27 11:16:59;;;;;;;;;6.25;4.25;;;;;-145.45;100.00;57426.63;6214932;22;45275;-70
2023/04/27 11:19:24;;;;;;;;;6.00;5.75;;;;;-145.45;100.00;57426.63;6215254;22;45301;-70
2023/04/27 11:21:50;;;;;;;;;7.75;6.25;;;;;-145.45;100.00;57426.63;6238725;22;47080;-69
2023/04/27 11:24:16;;;;;;;;;7.00;6.75;;;;;-145.45;100.00;57426.63;6215278;22;45280;-70
2023/04/27 11:26:41;;;;;;;;;3.75;3.75;;;;;-145.45;100.00;57426.63;6215425;22;45264;-70
2023/04/27 11:29:12;;;;;;;;;5.25;4.00;;;;;-145.45;100.00;57426.63;6215339;22;45418;-68
2023/04/27 11:31:42;;;;;;;;;4.50;4.00;;;;;-145.45;100.00;57426.63;6212743;22;48324;-69
2023/04/27 11:34:08;;;;;;;;;6.00;3.75;;;;;-145.45;100.00;57426.63;6215138;22;45288;-70
2023/04/27 11:36:35;;;;;;;;;5.00;5.00;;;;;-145.45;100.00;57426.63;6213475;22;45158;-70
2023/04/27 11:39:00;;;;;;;;;6.50;5.25;;;;;-145.45;100.00;57426.63;6215477;22;45241;-69
2023/04/27 11:41:33;;;;;;;;;6.50;5.00;;;;;-145.45;100.00;57426.63;6212306;22;45297;-70
2023/04/27 11:44:07;;;;;;;;;7.00;7.00;;;;;-145.45;100.00;57426.63;6215105;22;45268;-70
2023/04/27 11:46:35;;;;;;;;;8.00;5.50;;;;;-145.45;100.00;57426.63;6214936;22;45411;-70
2023/04/27 11:49:04;;;;;;;;;7.00;7.00;;;;;-145.45;100.00;57426.63;6214745;22;45201;-70
2023/04/27 11:51:38;;;;;;;;;4.00;4.00;;;;;-145.45;100.00;57426.63;6214872;22;45255;-69
2023/04/27 11:54:06;;;;;;;;;5.00;5.00;;;;;-145.45;100.00;57426.63;6215106;22;45339;-70
2023/04/27 11:56:41;;;;;;;;;5.25;5.25;;;;;-145.45;100.00;57426.63;6215438;22;45304;-69
2023/04/27 11:59:18;;;;;;;;;7.00;7.00;;;;;-145.45;100.00;57426.63;6215049;22;45432;-70
2023/04/27 12:01:44;;;;;;;;;8.00;6.75;;;;;-145.45;100.00;57426.63;6214741;22;45946;-70
2023/04/27 12:04:09;;;;;;;;;3.75;3.75;;;;;-145.45;100.00;57426.63;6241118;22;45333;-70
2023/04/27 12:06:34;;;;;;;;;5.00;5.00;;;;;-145.45;100.00;57426.63;6245630;22;45158;-70
2023/04/27 12:09:00;;;;;;;;;5.50;3.75;;;;;-145.45;100.00;57426.63;6217878;22;45914;-69
2023/04/27 12:11:28;;;;;;;;;6.00;5.25;;;;;-145.45;100.00;57426.63;6244985;22;46000;-69
2023/04/27 12:13:54;;;;;;;;;3.50;3.00;;;;;-145.45;100.00;57426.63;6245063;22;45323;-69
2023/04/27 12:16:23;;;;;;;;;5.25;4.25;;;;;-145.45;100.00;57426.63;6245866;22;45285;-68
2023/04/27 12:18:49;;;;;;;;;5.75;3.25;;;;;-145.45;100.00;57426.63;6217365;22;45576;-70
2023/04/27 12:21:15;;;;;;;;;5.75;4.50;;;;;-145.45;100.00;57426.63;6245859;22;45128;-70
2023/04/27 12:23:40;;;;;;;;;7.25;4.50;;;;;-145.45;100.00;57426.63;6245729;22;45247;-70
2023/04/27 12:26:05;;;;;;;;;4.50;4.50;;;;;-145.45;100.00;57426.63;6246469;22;45332;-71
2023/04/27 12:28:31;;;;;;;;;6.50;6.50;;;;;-145.45;100.00;57426.63;6246211;22;45315;-70
2023/04/27 12:30:56;;;;;;;;;6.00;6.00;;;;;-145.45;100.00;57426.63;6246077;22;46205;-70
2023/04/27 12:33:22;;;;;;;;;5.75;4.00;;;;;-145.45;100.00;57426.63;6245380;22;45118;-70
2023/04/27 12:35:47;;;;;;;;;4.75;4.75;;;;;-145.45;100.00;57426.63;6245962;22;45308;-70
2023/04/27 12:38:12;;;;;;;;;4.50;3.25;;;;;-145.45;100.00;57426.63;6243103;22;46926;-70
2023/04/27 12:40:38;;;;;;;;;4.75;4.75;;;;;-145.45;100.00;57426.63;6245728;22;45288;-71
2023/04/27 12:43:03;;;;;;;;;4.50;4.50;;;;;-145.45;100.00;57426.63;6242989;22;45328;-71
2023/04/27 12:45:28;;;;;;;;;4.75;3.75;;;;;-145.45;100.00;57426.63;6246227;22;45240;-70
2023/04/27 12:47:54;;;;;;;;;5.00;5.00;;;;;-145.45;100.00;57426.63;6244541;22;45277;-70
2023/04/27 12:50:19;;;;;;;;;5.25;5.25;;;;;-145.45;100.00;57426.63;6245833;22;45237;-70
2023/04/27 12:52:46;;;;;;;;;4.50;4.50;;;;;-145.45;100.00;57426.63;6245683;22;45299;-71
2023/04/27 12:55:12;;;;;;;;;5.75;5.00;;;;;-145.45;100.00;57426.63;6245721;22;45175;-70
2023/04/27 12:57:37;;;;;;;;;48.00;38.33;;;;;-145.45;100.00;57426.63;6245403;22;45245;-70
2023/04/27 13:00:06;;;;;;;;;8.75;6.50;;;;;-145.45;100.00;57426.63;6245619;22;45159;-70
2023/04/27 13:02:33;;;;;;;;;8.00;5.50;;;;;-145.45;100.00;57426.63;6244531;22;45215;-69
2023/04/27 13:04:59;;;;;;;;;4.50;4.50;;;;;-145.45;100.00;57426.63;6244092;22;45241;-70
2023/04/27 13:07:24;;;;;;;;;5.25;4.25;;;;;-145.45;100.00;57426.63;6245118;22;45218;-71
2023/04/27 13:09:49;;;;;;;;;6.50;4.25;;;;;-145.45;100.00;57426.63;6245282;22;45225;-71
2023/04/27 13:12:15;;;;;;;;;5.00;4.25;;;;;-145.45;100.00;57426.63;6245078;22;45276;-71
2023/04/27 13:14:42;;;;;;;;;5.75;5.00;;;;;-145.45;100.00;57426.63;6218182;22;45351;-70
2023/04/27 13:17:07;;;;;;;;;5.25;5.25;;;;;-145.45;100.00;57426.63;6244884;22;45320;-70
2023/04/27 13:19:32;;;;;;;;;65.75;52.75;;;;;-145.45;100.00;57426.63;6245130;22;45710;-70
2023/04/27 13:21:58;;;;;;;;;13.75;12.50;;;;;-145.45;100.00;57426.63;6244555;22;45217;-70
2023/04/27 13:24:23;;;;;;;;;9.00;6.75;;;;;-145.45;100.00;57426.63;6245562;22;45224;-70
2023/04/27 13:26:48;;;;;;;;;20.33;20.33;;;;;-145.45;100.00;57426.63;6244479;22;45909;-71
2023/04/27 13:29:14;;;;;;;;;12.75;10.50;;;;;-145.45;100.00;57426.63;6245463;22;46034;-71
2023/04/27 13:31:40;;;;;;;;;7.00;7.00;;;;;-145.45;100.00;57426.63;6246210;22;45082;-71
2023/04/27 13:34:05;;;;;;;;;8.25;7.50;;;;;-145.45;100.00;57426.63;6246136;22;45216;-70
2023/04/27 13:36:30;;;;;;;;;7.50;7.00;;;;;-145.45;100.00;57426.63;6245543;22;46077;-71
2023/04/27 13:38:56;;;;;;;;;8.75;7.00;;;;;-145.45;100.00;57426.63;6246670;22;45517;-71
2023/04/27 13:41:21;;;;;;;;;6.25;6.25;;;;;-145.45;100.00;57426.63;6246117;22;45211;-71
2023/04/27 13:43:47;;;;;;;;;8.50;6.00;;;;;-145.45;100.00;57426.63;6246849;22;45150;-71
2023/04/27 13:46:14;;;;;;;;;6.00;4.50;;;;;-145.45;100.00;57426.63;6245319;22;45272;-70
2023/04/27 13:48:39;;;;;;;;;6.25;6.25;;;;;-145.45;100.00;57426.63;6245861;22;46035;-71
2023/04/27 13:51:05;;;;;;;;;7.50;5.75;;;;;-145.45;100.00;57426.63;6243955;22;45208;-71
2023/04/27 13:53:30;;;;;;;;;6.00;5.67;;;;;-145.45;100.00;57426.63;6244761;22;45305;-72
2023/04/27 13:55:56;;;;;;;;;7.50;5.00;;;;;-145.45;100.00;57426.63;6246506;22;45245;-72
2023/04/27 13:58:22;;;;;;;;;5.75;5.75;;;;;-145.45;100.00;57426.63;6244878;22;45576;-71
2023/04/27 14:00:48;;;;;;;;;4.00;4.00;;;;;-145.45;100.00;57426.63;6246654;22;45115;-72
2023/04/27 14:03:16;;;;;;;;;4.33;4.33;;;;;-145.45;100.00;57426.63;6245622;22;45190;-72
2023/04/27 14:05:43;;;;;;;;;3.33;3.33;;;;;-145.45;100.00;57426.63;6246516;22;45444;-71
2023/04/27 14:08:09;;;;;;;;;6.00;5.00;;;;;-145.45;100.00;57426.63;6246304;22;45343;-71
2023/04/27 14:10:37;;;;;;;;;5.25;5.25;;;;;-145.45;100.00;57426.63;6246543;22;45283;-71
2023/04/27 14:13:04;;;;;;;;;5.00;5.00;;;;;-145.45;100.00;57426.63;6246380;22;45241;-70
2023/04/27 14:15:29;;;;;;;;;6.33;4.00;;;;;-145.45;100.00;57426.63;6219135;22;45421;-69
2023/04/27 14:17:54;;;;;;;;;5.00;4.00;;;;;-145.45;100.00;57426.63;6245641;22;45224;-69
2023/04/27 14:20:20;;;;;;;;;6.33;5.00;;;;;-145.45;100.00;57426.63;6246643;22;45154;-69
2023/04/27 14:22:45;;;;;;;;;6.00;4.00;;;;;-145.45;100.00;57426.63;6244458;22;45329;-69
2023/04/27 14:25:11;;;;;;;;;7.67;3.67;;;;;-145.45;100.00;57426.63;6246389;22;45363;-69
2023/04/27 14:27:36;;;;;;;;;4.67;3.33;;;;;-145.45;100.00;57426.63;6244364;22;45434;-69
2023/04/27 14:30:02;;;;;;;;;4.00;4.00;;;;;-145.45;100.00;57426.63;6246473;22;45163;-69